sensor_id;sensor_type;location;lat;lon;timestamp;pressure;altitude;pressure_sealevel;temperature;humidity
71735;BME280;59577;52.122;5.406;2023-09-18T00:00:19;100737.31;;;15.95;100.00
71735;BME280;59577;52.122;5.406;2023-09-18T00:02:48;100734.56;;;15.95;100.00
71735;BME280;59577;52.122;5.406;2023-09-18T00:05:15;100724.44;;;15.92;100.00
71735;BME280;59577;52.122;5.406;2023-09-18T00:07:42;100723.25;;;15.90;100.00
71735;BME280;59577;52.122;5.406;2023-09-18T00:10:13;100712.72;;;15.88;100.00
71735;BME280;59577;52.122;5.406;2023-09-18T00:12:40;100706.88;;;15.86;100.00
71735;BME280;59577;52.122;5.406;2023-09-18T00:15:07;100707.25;;;15.88;100.00
71735;BME280;59577;52.122;5.406;2023-09-18T00:17:36;100691.28;;;15.90;100.00
71735;BME280;59577;52.122;5.406;2023-09-18T00:20:03;100677.25;;;15.92;100.00
71735;BME280;59577;52.122;5.406;2023-09-18T00:22:33;100676.44;;;15.91;100.00
71735;BME280;59577;52.122;5.406;2023-09-18T00:24:59;100671.38;;;15.90;100.00
71735;BME280;59577;52.122;5.406;2023-09-18T00:27:27;100670.22;;;15.87;100.00
71735;BME280;59577;52.122;5.406;2023-09-18T00:29:55;100658.94;;;15.85;100.00
71735;BME280;59577;52.122;5.406;2023-09-18T00:32:21;100661.66;;;15.85;100.00
71735;BME280;59577;52.122;5.406;2023-09-18T00:34:48;100655.78;;;15.83;100.00
71735;BME280;59577;52.122;5.406;2023-09-18T00:37:15;100644.88;;;15.83;100.00
71735;BME280;59577;52.122;5.406;2023-09-18T00:39:42;100645.28;;;15.82;100.00
71735;BME280;59577;52.122;5.406;2023-09-18T00:42:10;100638.66;;;15.79;100.00
71735;BME280;59577;52.122;5.406;2023-09-18T00:44:40;100653.47;;;15.78;100.00
71735;BME280;59577;52.122;5.406;2023-09-18T00:47:10;100645.25;;;15.74;100.00
71735;BME280;59577;52.122;5.406;2023-09-18T00:49:40;100642.16;;;15.76;100.00
71735;BME280;59577;52.122;5.406;2023-09-18T00:52:09;100629.31;;;15.76;100.00
71735;BME280;59577;52.122;5.406;2023-09-18T00:54:37;100620.72;;;15.78;100.00
71735;BME280;59577;52.122;5.406;2023-09-18T00:57:05;100613.72;;;15.77;100.00
71735;BME280;59577;52.122;5.406;2023-09-18T00:59:32;100607.47;;;15.76;100.00
71735;BME280;59577;52.122;5.406;2023-09-18T01:02:00;100599.28;;;15.76;100.00
71735;BME280;59577;52.122;5.406;2023-09-18T01:04:28;100591.47;;;15.78;100.00
71735;BME280;59577;52.122;5.406;2023-09-18T01:06:56;100587.19;;;15.81;100.00
71735;BME280;59577;52.122;5.406;2023-09-18T01:09:24;100575.88;;;15.83;100.00
71735;BME280;59577;52.122;5.406;2023-09-18T01:12:00;100568.84;;;15.85;100.00
71735;BME280;59577;52.122;5.406;2023-09-18T01:14:32;100564.94;;;15.86;100.00
71735;BME280;59577;52.122;5.406;2023-09-18T01:17:01;100561.81;;;15.88;100.00
71735;BME280;59577;52.122;5.406;2023-09-18T01:22:05;100545.44;;;15.88;100.00
71735;BME280;59577;52.122;5.406;2023-09-18T01:24:33;100546.22;;;15.88;100.00
71735;BME280;59577;52.122;5.406;2023-09-18T01:27:00;100544.66;;;15.87;100.00
71735;BME280;59577;52.122;5.406;2023-09-18T01:29:27;100541.19;;;15.87;100.00
71735;BME280;59577;52.122;5.406;2023-09-18T01:31:54;100522.84;;;15.87;100.00
71735;BME280;59577;52.122;5.406;2023-09-18T01:34:31;100520.09;;;15.87;100.00
71735;BME280;59577;52.122;5.406;2023-09-18T01:37:00;100516.19;;;15.85;100.00
71735;BME280;59577;52.122;5.406;2023-09-18T01:39:27;100499.81;;;15.85;100.00
71735;BME280;59577;52.122;5.406;2023-09-18T01:42:02;100515.44;;;15.84;100.00
71735;BME280;59577;52.122;5.406;2023-09-18T01:44:31;100517.41;;;15.84;100.00
71735;BME280;59577;52.122;5.406;2023-09-18T01:46:59;100507.25;;;15.84;100.00
71735;BME280;59577;52.122;5.406;2023-09-18T01:51:56;100508.00;;;15.85;100.00
71735;BME280;59577;52.122;5.406;2023-09-18T01:54:22;100511.53;;;15.85;100.00
71735;BME280;59577;52.122;5.406;2023-09-18T01:56:49;100502.56;;;15.85;100.00
71735;BME280;59577;52.122;5.406;2023-09-18T01:59:17;100512.31;;;15.82;100.00
71735;BME280;59577;52.122;5.406;2023-09-18T02:01:44;100509.59;;;15.82;100.00
71735;BME280;59577;52.122;5.406;2023-09-18T02:04:11;100509.63;;;15.78;100.00
71735;BME280;59577;52.122;5.406;2023-09-18T02:06:58;100503.38;;;15.78;100.00
71735;BME280;59577;52.122;5.406;2023-09-18T02:09:25;100513.13;;;15.75;100.00
71735;BME280;59577;52.122;5.406;2023-09-18T02:11:51;100519.34;;;15.76;100.00
71735;BME280;59577;52.122;5.406;2023-09-18T02:14:18;100512.34;;;15.78;100.00
71735;BME280;59577;52.122;5.406;2023-09-18T02:16:44;100516.22;;;15.77;100.00
71735;BME280;59577;52.122;5.406;2023-09-18T02:19:13;100517.81;;;15.78;100.00
71735;BME280;59577;52.122;5.406;2023-09-18T02:21:40;100515.44;;;15.81;100.00
71735;BME280;59577;52.122;5.406;2023-09-18T02:24:07;100510.38;;;15.83;100.00
71735;BME280;59577;52.122;5.406;2023-09-18T02:26:34;100514.66;;;15.84;100.00
71735;BME280;59577;52.122;5.406;2023-09-18T02:29:03;100512.69;;;15.88;100.00
71735;BME280;59577;52.122;5.406;2023-09-18T02:31:30;100503.34;;;15.89;100.00
71735;BME280;59577;52.122;5.406;2023-09-18T02:33:57;100495.91;;;15.89;100.00
71735;BME280;59577;52.122;5.406;2023-09-18T02:36:23;100486.97;;;15.89;100.00
71735;BME280;59577;52.122;5.406;2023-09-18T02:38:51;100473.69;;;15.91;100.00
71735;BME280;59577;52.122;5.406;2023-09-18T02:41:18;100467.47;;;15.90;100.00
71735;BME280;59577;52.122;5.406;2023-09-18T02:43:44;100467.47;;;15.90;100.00
71735;BME280;59577;52.122;5.406;2023-09-18T02:46:11;100458.88;;;15.92;100.00
71735;BME280;59577;52.122;5.406;2023-09-18T02:48:38;100455.34;;;15.91;100.00
71735;BME280;59577;52.122;5.406;2023-09-18T02:51:05;100450.28;;;15.90;100.00
71735;BME280;59577;52.122;5.406;2023-09-18T02:53:32;100451.09;;;15.90;100.00
71735;BME280;59577;52.122;5.406;2023-09-18T02:55:59;100444.03;;;15.93;100.00
71735;BME280;59577;52.122;5.406;2023-09-18T02:58:26;100431.97;;;15.94;100.00
71735;BME280;59577;52.122;5.406;2023-09-18T03:00:57;100429.22;;;15.94;100.00
71735;BME280;59577;52.122;5.406;2023-09-18T03:03:25;100408.16;;;15.94;100.00
71735;BME280;59577;52.122;5.406;2023-09-18T03:05:52;100399.97;;;15.94;100.00
71735;BME280;59577;52.122;5.406;2023-09-18T03:08:18;100396.84;;;15.96;100.00
71735;BME280;59577;52.122;5.406;2023-09-18T03:10:45;100381.22;;;15.96;100.00
71735;BME280;59577;52.122;5.406;2023-09-18T03:13:13;100375.41;;;15.94;100.00
71735;BME280;59577;52.122;5.406;2023-09-18T03:15:44;100372.69;;;15.94;100.00
71735;BME280;59577;52.122;5.406;2023-09-18T03:18:12;100378.50;;;15.96;100.00
71735;BME280;59577;52.122;5.406;2023-09-18T03:20:38;100379.28;;;15.97;100.00
71735;BME280;59577;52.122;5.406;2023-09-18T03:23:05;100376.53;;;15.97;100.00
71735;BME280;59577;52.122;5.406;2023-09-18T03:25:32;100375.78;;;15.96;100.00
71735;BME280;59577;52.122;5.406;2023-09-18T03:28:17;100373.81;;;15.97;100.00
71735;BME280;59577;52.122;5.406;2023-09-18T03:30:43;100369.91;;;15.98;100.00
71735;BME280;59577;52.122;5.406;2023-09-18T03:33:10;100360.94;;;16.01;100.00
71735;BME280;59577;52.122;5.406;2023-09-18T03:35:50;100371.84;;;16.05;100.00
71735;BME280;59577;52.122;5.406;2023-09-18T03:38:18;100377.66;;;16.07;100.00
71735;BME280;59577;52.122;5.406;2023-09-18T03:40:45;100371.03;;;16.08;100.00
71735;BME280;59577;52.122;5.406;2023-09-18T03:43:12;100378.03;;;16.09;100.00
71735;BME280;59577;52.122;5.406;2023-09-18T03:45:39;100381.97;;;16.08;100.00
71735;BME280;59577;52.122;5.406;2023-09-18T03:48:10;100385.81;;;16.10;100.00
71735;BME280;59577;52.122;5.406;2023-09-18T03:50:37;100392.44;;;16.13;100.00
71735;BME280;59577;52.122;5.406;2023-09-18T03:53:03;100397.09;;;16.16;100.00
71735;BME280;59577;52.122;5.406;2023-09-18T03:55:30;100381.88;;;16.19;100.00
71735;BME280;59577;52.122;5.406;2023-09-18T03:57:56;100377.97;;;16.16;100.00
71735;BME280;59577;52.122;5.406;2023-09-18T04:00:23;100374.84;;;16.17;100.00
71735;BME280;59577;52.122;5.406;2023-09-18T04:02:50;100360.03;;;16.19;100.00
71735;BME280;59577;52.122;5.406;2023-09-18T04:05:17;100360.38;;;16.24;100.00
71735;BME280;59577;52.122;5.406;2023-09-18T04:07:45;100360.34;;;16.28;100.00
71735;BME280;59577;52.122;5.406;2023-09-18T04:10:14;100352.50;;;16.33;100.00
71735;BME280;59577;52.122;5.406;2023-09-18T04:12:46;100350.13;;;16.39;100.00
71735;BME280;59577;52.122;5.406;2023-09-18T04:15:15;100343.00;;;16.49;100.00
71735;BME280;59577;52.122;5.406;2023-09-18T04:17:43;100349.50;;;16.62;100.00
71735;BME280;59577;52.122;5.406;2023-09-18T04:20:11;100342.06;;;16.66;100.00
71735;BME280;59577;52.122;5.406;2023-09-18T04:22:44;100334.19;;;16.72;100.00
71735;BME280;59577;52.122;5.406;2023-09-18T04:25:11;100324.78;;;16.77;100.00
71735;BME280;59577;52.122;5.406;2023-09-18T04:27:38;100311.53;;;16.75;100.00
71735;BME280;59577;52.122;5.406;2023-09-18T04:30:06;100318.13;;;16.78;100.00
71735;BME280;59577;52.122;5.406;2023-09-18T04:32:36;100310.25;;;16.83;100.00
71735;BME280;59577;52.122;5.406;2023-09-18T04:35:04;100300.09;;;16.87;100.00
71735;BME280;59577;52.122;5.406;2023-09-18T04:37:36;100297.31;;;16.91;100.00
71735;BME280;59577;52.122;5.406;2023-09-18T04:40:06;100298.44;;;16.94;100.00
71735;BME280;59577;52.122;5.406;2023-09-18T04:42:38;100285.94;;;16.96;100.00
71735;BME280;59577;52.122;5.406;2023-09-18T04:45:05;100287.16;;;16.91;100.00
71735;BME280;59577;52.122;5.406;2023-09-18T04:47:32;100273.44;;;16.95;100.00
71735;BME280;59577;52.122;5.406;2023-09-18T04:49:59;100278.50;;;16.97;100.00
71735;BME280;59577;52.122;5.406;2023-09-18T04:52:25;100280.44;;;17.00;100.00
71735;BME280;59577;52.122;5.406;2023-09-18T04:54:52;100279.22;;;17.01;100.00
71735;BME280;59577;52.122;5.406;2023-09-18T04:57:22;100310.41;;;17.07;100.00
71735;BME280;59577;52.122;5.406;2023-09-18T04:59:49;100345.06;;;17.17;100.00
71735;BME280;59577;52.122;5.406;2023-09-18T05:02:30;100340.63;;;17.31;100.00
71735;BME280;59577;52.122;5.406;2023-09-18T05:04:57;100327.56;;;17.42;100.00
71735;BME280;59577;52.122;5.406;2023-09-18T05:07:24;100352.09;;;17.49;100.00
71735;BME280;59577;52.122;5.406;2023-09-18T05:09:51;100345.75;;;17.56;100.00
71735;BME280;59577;52.122;5.406;2023-09-18T05:12:17;100316.00;;;17.58;100.00
71735;BME280;59577;52.122;5.406;2023-09-18T05:14:44;100314.47;;;17.57;100.00
71735;BME280;59577;52.122;5.406;2023-09-18T05:17:16;100324.59;;;17.60;100.00
71735;BME280;59577;52.122;5.406;2023-09-18T05:19:43;100317.16;;;17.60;100.00
71735;BME280;59577;52.122;5.406;2023-09-18T05:22:10;100318.31;;;17.59;100.00
71735;BME280;59577;52.122;5.406;2023-09-18T05:24:40;100311.31;;;17.58;100.00
71735;BME280;59577;52.122;5.406;2023-09-18T05:27:07;100305.50;;;17.56;100.00
71735;BME280;59577;52.122;5.406;2023-09-18T05:29:34;100311.72;;;17.57;100.00
71735;BME280;59577;52.122;5.406;2023-09-18T05:32:04;100312.91;;;17.56;100.00
71735;BME280;59577;52.122;5.406;2023-09-18T05:34:31;100318.78;;;17.54;100.00
71735;BME280;59577;52.122;5.406;2023-09-18T05:36:58;100320.00;;;17.53;100.00
71735;BME280;59577;52.122;5.406;2023-09-18T05:39:25;100329.38;;;17.52;100.00
71735;BME280;59577;52.122;5.406;2023-09-18T05:41:51;100332.88;;;17.53;100.00
71735;BME280;59577;52.122;5.406;2023-09-18T05:44:18;100329.38;;;17.52;100.00
71735;BME280;59577;52.122;5.406;2023-09-18T05:46:45;100323.13;;;17.52;100.00
71735;BME280;59577;52.122;5.406;2023-09-18T05:49:11;100326.63;;;17.52;100.00
71735;BME280;59577;52.122;5.406;2023-09-18T05:51:39;100331.34;;;17.52;100.00
71735;BME280;59577;52.122;5.406;2023-09-18T05:54:05;100338.34;;;17.53;100.00
71735;BME280;59577;52.122;5.406;2023-09-18T05:56:33;100336.41;;;17.53;100.00
71735;BME280;59577;52.122;5.406;2023-09-18T05:59:00;100324.25;;;17.54;100.00
71735;BME280;59577;52.122;5.406;2023-09-18T06:01:26;100323.13;;;17.52;100.00
71735;BME280;59577;52.122;5.406;2023-09-18T06:03:54;100318.06;;;17.50;100.00
71735;BME280;59577;52.122;5.406;2023-09-18T06:06:20;100321.97;;;17.49;100.00
71735;BME280;59577;52.122;5.406;2023-09-18T06:08:47;100330.25;;;17.45;100.00
71735;BME280;59577;52.122;5.406;2023-09-18T06:11:14;100324.41;;;17.43;100.00
71735;BME280;59577;52.122;5.406;2023-09-18T06:13:40;100314.63;;;17.46;100.00
71735;BME280;59577;52.122;5.406;2023-09-18T06:16:07;100335.72;;;17.45;100.00
71735;BME280;59577;52.122;5.406;2023-09-18T06:18:34;100338.81;;;17.47;100.00
71735;BME280;59577;52.122;5.406;2023-09-18T06:21:04;100339.97;;;17.50;100.00
71735;BME280;59577;52.122;5.406;2023-09-18T06:23:31;100333.69;;;17.53;100.00
71735;BME280;59577;52.122;5.406;2023-09-18T06:25:59;100329.69;;;17.58;100.00
71735;BME280;59577;52.122;5.406;2023-09-18T06:28:26;100338.69;;;17.58;100.00
71735;BME280;59577;52.122;5.406;2023-09-18T06:30:52;100332.41;;;17.58;100.00
71735;BME280;59577;52.122;5.406;2023-09-18T06:33:21;100335.94;;;17.58;100.00
71735;BME280;59577;52.122;5.406;2023-09-18T06:35:47;100348.03;;;17.61;100.00
71735;BME280;59577;52.122;5.406;2023-09-18T06:38:15;100341.72;;;17.64;100.00
71735;BME280;59577;52.122;5.406;2023-09-18T06:40:41;100336.63;;;17.66;100.00
71735;BME280;59577;52.122;5.406;2023-09-18T06:43:08;100333.06;;;17.69;100.00
71735;BME280;59577;52.122;5.406;2023-09-18T06:45:35;100328.72;;;17.72;100.00
71735;BME280;59577;52.122;5.406;2023-09-18T06:48:04;100331.44;;;17.72;100.00
71735;BME280;59577;52.122;5.406;2023-09-18T06:50:31;100338.06;;;17.74;100.00
71735;BME280;59577;52.122;5.406;2023-09-18T06:52:58;100343.50;;;17.78;100.00
71735;BME280;59577;52.122;5.406;2023-09-18T06:55:24;100341.47;;;17.82;100.00
71735;BME280;59577;52.122;5.406;2023-09-18T06:57:51;100346.09;;;17.89;100.00
71735;BME280;59577;52.122;5.406;2023-09-18T07:00:18;100338.19;;;17.94;100.00
71735;BME280;59577;52.122;5.406;2023-09-18T07:02:48;100338.50;;;18.00;100.00
71735;BME280;59577;52.122;5.406;2023-09-18T07:05:16;100352.84;;;18.08;100.00
71735;BME280;59577;52.122;5.406;2023-09-18T07:07:43;100348.47;;;18.14;100.00
71735;BME280;59577;52.122;5.406;2023-09-18T07:10:10;100353.06;;;18.20;100.00
71735;BME280;59577;52.122;5.406;2023-09-18T07:12:36;100342.41;;;18.26;100.00
71735;BME280;59577;52.122;5.406;2023-09-18T07:15:04;100340.38;;;18.30;100.00
71735;BME280;59577;52.122;5.406;2023-09-18T07:17:35;100347.00;;;18.33;100.00
71735;BME280;59577;52.122;5.406;2023-09-18T07:20:02;100357.13;;;18.36;100.00
71735;BME280;59577;52.122;5.406;2023-09-18T07:22:45;100359.88;;;18.36;100.00
71735;BME280;59577;52.122;5.406;2023-09-18T07:25:12;100353.19;;;18.37;100.00
71735;BME280;59577;52.122;5.406;2023-09-18T07:27:39;100348.03;;;18.39;100.00
71735;BME280;59577;52.122;5.406;2023-09-18T07:30:11;100334.72;;;18.41;100.00
71735;BME280;59577;52.122;5.406;2023-09-18T07:32:41;100343.28;;;18.43;100.00
71735;BME280;59577;52.122;5.406;2023-09-18T07:35:09;100338.94;;;18.46;100.00
71735;BME280;59577;52.122;5.406;2023-09-18T07:37:36;100337.75;;;18.47;100.00
71735;BME280;59577;52.122;5.406;2023-09-18T07:40:06;100333.75;;;18.51;100.00
71735;BME280;59577;52.122;5.406;2023-09-18T07:42:33;100348.25;;;18.52;100.00
71735;BME280;59577;52.122;5.406;2023-09-18T07:45:00;100348.66;;;18.50;100.00
71735;BME280;59577;52.122;5.406;2023-09-18T07:47:26;100339.59;;;18.53;100.00
71735;BME280;59577;52.122;5.406;2023-09-18T07:49:53;100348.09;;;18.59;100.00
71735;BME280;59577;52.122;5.406;2023-09-18T07:52:21;100352.69;;;18.66;100.00
71735;BME280;59577;52.122;5.406;2023-09-18T07:54:47;100350.22;;;18.71;100.00
71735;BME280;59577;52.122;5.406;2023-09-18T07:57:15;100341.94;;;18.75;100.00
71735;BME280;59577;52.122;5.406;2023-09-18T07:59:42;100350.44;;;18.80;100.00
71735;BME280;59577;52.122;5.406;2023-09-18T08:02:09;100348.81;;;18.87;100.00
71735;BME280;59577;52.122;5.406;2023-09-18T08:04:36;100364.50;;;18.86;100.00
71735;BME280;59577;52.122;5.406;2023-09-18T08:07:03;100369.19;;;18.86;100.00
71735;BME280;59577;52.122;5.406;2023-09-18T08:09:32;100357.88;;;18.84;100.00
71735;BME280;59577;52.122;5.406;2023-09-18T08:12:03;100368.88;;;19.04;100.00
71735;BME280;59577;52.122;5.406;2023-09-18T08:14:29;100361.69;;;19.10;100.00
71735;BME280;59577;52.122;5.406;2023-09-18T08:17:00;100362.91;;;19.09;100.00
71735;BME280;59577;52.122;5.406;2023-09-18T08:19:27;100358.16;;;19.09;100.00
71735;BME280;59577;52.122;5.406;2023-09-18T08:21:54;100360.56;;;19.07;100.00
71735;BME280;59577;52.122;5.406;2023-09-18T08:24:22;100360.44;;;19.14;100.00
71735;BME280;59577;52.122;5.406;2023-09-18T08:26:49;100366.31;;;19.13;100.00
71735;BME280;59577;52.122;5.406;2023-09-18T08:29:16;100387.94;;;19.11;100.00
71735;BME280;59577;52.122;5.406;2023-09-18T08:31:44;100386.44;;;19.06;100.00
71735;BME280;59577;52.122;5.406;2023-09-18T08:34:10;100389.66;;;19.81;100.00
71735;BME280;59577;52.122;5.406;2023-09-18T08:36:37;100370.28;;;21.00;100.00
71735;BME280;59577;52.122;5.406;2023-09-18T08:39:04;100372.56;;;21.31;100.00
71735;BME280;59577;52.122;5.406;2023-09-18T08:41:38;100373.84;;;21.13;100.00
71735;BME280;59577;52.122;5.406;2023-09-18T08:44:08;100373.00;;;21.42;100.00
71735;BME280;59577;52.122;5.406;2023-09-18T08:46:39;100380.47;;;21.58;100.00
71735;BME280;59577;52.122;5.406;2023-09-18T08:49:07;100386.41;;;21.69;100.00
71735;BME280;59577;52.122;5.406;2023-09-18T08:51:34;100385.97;;;22.35;100.00
71735;BME280;59577;52.122;5.406;2023-09-18T08:54:04;100386.09;;;22.66;100.00
71735;BME280;59577;52.122;5.406;2023-09-18T08:56:32;100388.22;;;22.62;100.00
71735;BME280;59577;52.122;5.406;2023-09-18T08:59:00;100393.78;;;23.19;100.00
71735;BME280;59577;52.122;5.406;2023-09-18T09:01:27;100396.06;;;24.06;100.00
71735;BME280;59577;52.122;5.406;2023-09-18T09:03:54;100397.72;;;24.03;100.00
71735;BME280;59577;52.122;5.406;2023-09-18T09:06:21;100410.06;;;23.80;100.00
71735;BME280;59577;52.122;5.406;2023-09-18T09:08:49;100420.47;;;23.44;100.00
71735;BME280;59577;52.122;5.406;2023-09-18T09:11:17;100427.53;;;23.99;100.00
71735;BME280;59577;52.122;5.406;2023-09-18T09:13:44;100422.06;;;24.17;100.00
71735;BME280;59577;52.122;5.406;2023-09-18T09:16:13;100416.47;;;23.99;100.00
71735;BME280;59577;52.122;5.406;2023-09-18T09:18:48;100423.19;;;23.66;100.00
71735;BME280;59577;52.122;5.406;2023-09-18T09:21:16;100401.69;;;23.93;100.00
71735;BME280;59577;52.122;5.406;2023-09-18T09:23:51;100408.63;;;24.47;100.00
71735;BME280;59577;52.122;5.406;2023-09-18T09:26:21;100415.59;;;25.07;100.00
71735;BME280;59577;52.122;5.406;2023-09-18T09:28:49;100403.25;;;25.36;100.00
71735;BME280;59577;52.122;5.406;2023-09-18T09:31:27;100408.56;;;25.67;100.00
71735;BME280;59577;52.122;5.406;2023-09-18T09:33:54;100412.47;;;25.51;98.45
71735;BME280;59577;52.122;5.406;2023-09-18T09:36:22;100407.00;;;24.87;96.79
71735;BME280;59577;52.122;5.406;2023-09-18T09:38:54;100413.03;;;24.26;100.00
71735;BME280;59577;52.122;5.406;2023-09-18T09:41:22;100419.72;;;23.75;100.00
71735;BME280;59577;52.122;5.406;2023-09-18T09:43:48;100429.78;;;23.38;100.00
71735;BME280;59577;52.122;5.406;2023-09-18T09:46:16;100435.22;;;23.06;100.00
71735;BME280;59577;52.122;5.406;2023-09-18T09:51:25;100432.41;;;22.11;100.00
71735;BME280;59577;52.122;5.406;2023-09-18T09:53:52;100440.97;;;21.74;100.00
71735;BME280;59577;52.122;5.406;2023-09-18T09:56:19;100424.06;;;21.47;100.00
71735;BME280;59577;52.122;5.406;2023-09-18T09:59:04;100428.16;;;21.55;100.00
71735;BME280;59577;52.122;5.406;2023-09-18T10:01:35;100444.16;;;21.60;100.00
71735;BME280;59577;52.122;5.406;2023-09-18T10:04:08;100441.53;;;21.40;100.00
71735;BME280;59577;52.122;5.406;2023-09-18T10:06:36;100447.72;;;21.44;100.00
71735;BME280;59577;52.122;5.406;2023-09-18T10:09:04;100454.19;;;21.37;98.20
71735;BME280;59577;52.122;5.406;2023-09-18T10:11:38;100456.97;;;21.21;97.70
71735;BME280;59577;52.122;5.406;2023-09-18T10:14:11;100450.38;;;21.18;97.56
71735;BME280;59577;52.122;5.406;2023-09-18T10:16:40;100446.59;;;21.41;96.26
71735;BME280;59577;52.122;5.406;2023-09-18T10:22:30;100439.53;;;21.70;97.16
71735;BME280;59577;52.122;5.406;2023-09-18T10:25:08;100430.75;;;21.88;94.64
71735;BME280;59577;52.122;5.406;2023-09-18T10:27:37;100443.53;;;22.20;94.25
71735;BME280;59577;52.122;5.406;2023-09-18T10:30:09;100440.69;;;22.24;91.19
71735;BME280;59577;52.122;5.406;2023-09-18T10:32:39;100445.84;;;22.09;89.67
71735;BME280;59577;52.122;5.406;2023-09-18T10:35:07;100454.78;;;22.00;89.89
71735;BME280;59577;52.122;5.406;2023-09-18T10:37:39;100464.81;;;22.07;90.05
71735;BME280;59577;52.122;5.406;2023-09-18T10:40:08;100464.72;;;22.10;90.86
71735;BME280;59577;52.122;5.406;2023-09-18T10:42:39;100467.53;;;21.81;90.46
71735;BME280;59577;52.122;5.406;2023-09-18T10:45:11;100460.66;;;21.60;90.31
71735;BME280;59577;52.122;5.406;2023-09-18T10:47:43;100462.34;;;21.70;92.33
71735;BME280;59577;52.122;5.406;2023-09-18T10:50:12;100455.66;;;21.84;90.22
71735;BME280;59577;52.122;5.406;2023-09-18T10:52:43;100468.56;;;21.87;90.89
71735;BME280;59577;52.122;5.406;2023-09-18T10:55:13;100459.94;;;21.72;88.92
71735;BME280;59577;52.122;5.406;2023-09-18T10:58:09;100467.75;;;21.45;90.22
71735;BME280;59577;52.122;5.406;2023-09-18T11:00:36;100462.69;;;21.14;89.83
71735;BME280;59577;52.122;5.406;2023-09-18T11:03:12;100465.63;;;21.07;91.46
71735;BME280;59577;52.122;5.406;2023-09-18T11:05:39;100455.88;;;21.18;92.66
71735;BME280;59577;52.122;5.406;2023-09-18T11:08:34;100467.78;;;21.28;92.69
71735;BME280;59577;52.122;5.406;2023-09-18T11:11:10;100455.59;;;21.58;91.98
71735;BME280;59577;52.122;5.406;2023-09-18T11:13:43;100461.06;;;21.88;88.00
71735;BME280;59577;52.122;5.406;2023-09-18T11:21:28;100436.47;;;22.19;85.98
71735;BME280;59577;52.122;5.406;2023-09-18T11:24:02;100446.75;;;22.31;84.86
71735;BME280;59577;52.122;5.406;2023-09-18T11:26:33;100444.75;;;22.32;81.39
71735;BME280;59577;52.122;5.406;2023-09-18T11:29:01;100450.84;;;22.40;81.66
71735;BME280;59577;52.122;5.406;2023-09-18T11:31:50;100442.69;;;22.36;83.00
71735;BME280;59577;52.122;5.406;2023-09-18T11:34:25;100449.06;;;22.20;81.60
71735;BME280;59577;52.122;5.406;2023-09-18T11:36:58;100448.72;;;22.18;83.61
71735;BME280;59577;52.122;5.406;2023-09-18T11:39:38;100448.06;;;22.01;81.66
71735;BME280;59577;52.122;5.406;2023-09-18T11:42:09;100435.59;;;21.84;81.39
71735;BME280;59577;52.122;5.406;2023-09-18T11:44:37;100432.94;;;21.93;81.38
71735;BME280;59577;52.122;5.406;2023-09-18T11:47:10;100437.59;;;22.34;80.82
71735;BME280;59577;52.122;5.406;2023-09-18T11:49:56;100439.44;;;22.25;79.72
71735;BME280;59577;52.122;5.406;2023-09-18T11:52:30;100440.56;;;22.02;81.10
71735;BME280;59577;52.122;5.406;2023-09-18T11:55:00;100443.31;;;22.02;81.96
71735;BME280;59577;52.122;5.406;2023-09-18T11:57:27;100437.81;;;22.02;81.88
71735;BME280;59577;52.122;5.406;2023-09-18T11:59:56;100443.41;;;22.11;82.47
71735;BME280;59577;52.122;5.406;2023-09-18T12:02:30;100439.13;;;22.10;81.54
71735;BME280;59577;52.122;5.406;2023-09-18T12:05:15;100439.13;;;21.97;80.72
71735;BME280;59577;52.122;5.406;2023-09-18T12:07:44;100440.09;;;21.90;81.43
71735;BME280;59577;52.122;5.406;2023-09-18T12:10:14;100446.72;;;22.06;82.08
71735;BME280;59577;52.122;5.406;2023-09-18T12:12:44;100443.66;;;22.16;80.42
71735;BME280;59577;52.122;5.406;2023-09-18T12:15:11;100439.03;;;22.39;80.41
71735;BME280;59577;52.122;5.406;2023-09-18T12:17:38;100445.41;;;22.23;78.69
71735;BME280;59577;52.122;5.406;2023-09-18T12:20:05;100442.41;;;21.92;79.09
71735;BME280;59577;52.122;5.406;2023-09-18T12:22:33;100440.63;;;21.72;80.16
71735;BME280;59577;52.122;5.406;2023-09-18T12:25:13;100441.44;;;21.86;82.71
71735;BME280;59577;52.122;5.406;2023-09-18T12:27:51;100443.13;;;22.34;80.48
71735;BME280;59577;52.122;5.406;2023-09-18T12:30:19;100438.00;;;22.59;78.92
71735;BME280;59577;52.122;5.406;2023-09-18T12:32:49;100432.00;;;22.73;76.65
71735;BME280;59577;52.122;5.406;2023-09-18T12:35:16;100432.88;;;22.70;75.52
71735;BME280;59577;52.122;5.406;2023-09-18T12:37:45;100448.25;;;22.71;75.08
71735;BME280;59577;52.122;5.406;2023-09-18T12:40:30;100448.06;;;22.87;77.25
71735;BME280;59577;52.122;5.406;2023-09-18T12:42:59;100446.28;;;22.94;75.95
71735;BME280;59577;52.122;5.406;2023-09-18T12:45:28;100436.50;;;22.80;75.00
71735;BME280;59577;52.122;5.406;2023-09-18T12:47:57;100432.75;;;22.73;77.64
71735;BME280;59577;52.122;5.406;2023-09-18T12:50:25;100431.88;;;22.77;73.25
71735;BME280;59577;52.122;5.406;2023-09-18T12:52:52;100424.84;;;22.76;73.88
71735;BME280;59577;52.122;5.406;2023-09-18T12:55:25;100422.47;;;22.87;72.70
71735;BME280;59577;52.122;5.406;2023-09-18T12:57:53;100411.28;;;22.68;74.10
71735;BME280;59577;52.122;5.406;2023-09-18T13:00:21;100401.16;;;22.87;76.20
71735;BME280;59577;52.122;5.406;2023-09-18T13:02:53;100395.91;;;23.02;74.39
71735;BME280;59577;52.122;5.406;2023-09-18T13:05:23;100398.81;;;22.99;73.66
71735;BME280;59577;52.122;5.406;2023-09-18T13:07:53;100398.34;;;23.00;73.56